Time,TemperatureF,DewpointF,PressureIn,WindDirection,WindDirectionDegrees,WindSpeedMPH,WindSpeedGustMPH,Humidity,HourlyPrecipIn,Conditions,Clouds,dailyrainin,SoftwareType,DateUTC
2013-09-22 00:07:00,81.3,66.8,0.00,North,0,0.0,0.0,54,0.00,,,-99.99,Homeseer,2013-09-22 04:07:00,
2013-09-22 00:17:00,81.3,67.2,0.00,South,180,1.6,1.6,55,0.00,,,-99.99,Homeseer,2013-09-22 04:17:00,
2013-09-22 00:27:00,81.3,67.2,0.00,South,180,0.0,3.8,55,0.00,,,-99.99,Homeseer,2013-09-22 04:27:00,
2013-09-22 00:37:00,81.3,67.7,0.00,WSW,247,1.3,0.0,56,0.00,,,-99.99,Homeseer,2013-09-22 04:37:00,
2013-09-22 00:47:00,81.5,67.8,0.00,WSW,247,0.0,0.0,56,0.00,,,-99.99,Homeseer,2013-09-22 04:47:00,
2013-09-22 00:57:00,81.5,67.8,0.00,ESE,112,0.0,0.0,56,0.00,,,-99.99,Homeseer,2013-09-22 04:57:00,
2013-09-22 01:07:00,81.5,67.8,0.00,WSW,247,2.2,0.0,56,0.00,,,-99.99,Homeseer,2013-09-22 05:07:00,
2013-09-22 01:17:00,81.5,67.8,0.00,South,180,0.0,2.0,56,0.00,,,-99.99,Homeseer,2013-09-22 05:17:00,
2013-09-22 01:27:00,81.5,67.8,0.00,South,180,0.0,0.0,56,0.00,,,-99.99,Homeseer,2013-09-22 05:27:00,
2013-09-22 01:37:00,81.3,67.7,0.00,North,0,0.9,1.1,56,0.00,,,-99.99,Homeseer,2013-09-22 05:37:00,
2013-09-22 01:47:00,81.3,67.7,0.00,North,0,0.0,0.0,56,0.00,,,-99.99,Homeseer,2013-09-22 05:47:00,
2013-09-22 01:57:00,81.3,67.7,0.00,WSW,247,0.0,0.0,56,0.00,,,-99.99,Homeseer,2013-09-22 05:57:00,
2013-09-22 02:07:00,81.3,68.8,0.00,North,0,0.9,0.0,59,0.00,,,-99.99,Homeseer,2013-09-22 06:07:00,
2013-09-22 02:17:00,81.1,69.4,0.00,WSW,247,1.3,0.0,61,0.00,,,-99.99,Homeseer,2013-09-22 06:17:00,
2013-09-22 02:27:00,80.4,70.9,0.00,WNW,297,0.0,0.0,67,0.00,,,-99.99,Homeseer,2013-09-22 06:27:00,
2013-09-22 02:37:00,80.4,72.6,0.00,South,180,0.0,0.0,72,0.00,,,-99.99,Homeseer,2013-09-22 06:37:00,
2013-09-22 02:47:00,80.6,71.4,0.00,South,180,0.0,2.7,68,0.00,,,-99.99,Homeseer,2013-09-22 06:47:00,
2013-09-22 02:57:00,80.8,71.3,0.00,North,0,1.3,4.0,67,0.00,,,-99.99,Homeseer,2013-09-22 06:57:00,
2013-09-22 03:07:00,80.8,71.3,0.00,WSW,247,1.3,0.0,67,0.00,,,-99.99,Homeseer,2013-09-22 07:07:00,
2013-09-22 03:17:00,80.8,70.9,0.00,West,270,0.0,0.0,66,0.00,,,-99.99,Homeseer,2013-09-22 07:17:00,
2013-09-22 03:27:00,80.8,70.9,0.00,SE,135,2.2,3.6,66,0.00,,,-99.99,Homeseer,2013-09-22 07:27:00,
2013-09-22 03:37:00,81.0,71.5,0.00,North,0,1.3,0.0,67,0.00,,,-99.99,Homeseer,2013-09-22 07:37:00,
2013-09-22 03:47:00,81.0,71.5,0.00,WSW,247,0.0,0.0,67,0.00,,,-99.99,Homeseer,2013-09-22 07:47:00,
2013-09-22 03:57:00,80.8,71.3,0.00,South,180,0.0,0.0,67,0.00,,,-99.99,Homeseer,2013-09-22 07:57:00,
2013-09-22 04:07:00,80.8,71.3,0.00,South,180,0.9,0.0,67,0.00,,,-99.99,Homeseer,2013-09-22 08:07:00,
2013-09-22 04:17:00,80.6,71.1,0.00,South,180,0.0,2.0,67,0.00,,,-99.99,Homeseer,2013-09-22 08:17:00,
2013-09-22 04:27:00,80.6,71.8,0.00,South,180,0.0,0.0,69,0.00,,,-99.99,Homeseer,2013-09-22 08:27:00,
2013-09-22 04:37:00,80.6,71.4,0.00,WSW,247,0.0,0.0,68,0.00,,,-99.99,Homeseer,2013-09-22 08:37:00,
2013-09-22 04:47:00,80.6,71.8,0.00,WSW,247,0.0,0.0,69,0.00,,,-99.99,Homeseer,2013-09-22 08:47:00,
2013-09-22 04:57:00,80.4,71.9,0.00,WSW,247,0.0,0.0,70,0.00,,,-99.99,Homeseer,2013-09-22 08:57:00,
2013-09-22 05:07:00,80.4,72.9,0.00,NW,315,0.0,0.0,73,0.00,,,-99.99,Homeseer,2013-09-22 09:07:00,
2013-09-22 05:17:00,80.2,73.0,0.00,NW,315,0.0,0.0,74,0.00,,,-99.99,Homeseer,2013-09-22 09:17:00,
2013-09-22 05:27:00,80.2,73.6,0.00,WNW,297,0.0,0.0,76,0.00,,,-99.99,Homeseer,2013-09-22 09:27:00,
2013-09-22 05:37:00,80.1,74.5,0.00,WSW,247,0.0,0.0,79,0.00,,,-99.99,Homeseer,2013-09-22 09:37:00,
2013-09-22 05:47:00,79.9,74.3,0.00,WNW,297,0.0,0.0,79,0.00,,,-99.99,Homeseer,2013-09-22 09:47:00,
2013-09-22 05:57:00,79.7,74.4,0.00,WSW,247,0.0,0.0,80,0.00,,,-99.99,Homeseer,2013-09-22 09:57:00,
2013-09-22 06:07:00,79.7,74.7,0.00,WNW,297,0.0,0.0,81,0.00,,,-99.99,Homeseer,2013-09-22 10:07:00,
2013-09-22 06:17:00,79.5,74.7,0.00,WSW,247,0.0,0.9,82,0.00,,,-99.99,Homeseer,2013-09-22 10:17:00,
2013-09-22 06:27:00,79.3,74.6,0.00,West,270,0.0,0.0,82,0.00,,,-99.99,Homeseer,2013-09-22 10:27:00,
2013-09-22 06:37:00,79.2,74.5,0.00,WSW,247,0.0,0.0,82,0.00,,,-99.99,Homeseer,2013-09-22 10:37:00,
2013-09-22 06:47:00,79.2,75.3,0.00,WSW,247,0.0,0.0,85,0.00,,,-99.99,Homeseer,2013-09-22 10:47:00,
2013-09-22 07:07:00,78.6,74.7,0.00,WNW,297,0.0,0.0,85,0.00,,,-99.99,Homeseer,2013-09-22 11:07:00,
2013-09-22 07:17:00,78.6,74.7,0.00,West,270,0.0,0.0,85,0.00,,,-99.99,Homeseer,2013-09-22 11:17:00,
2013-09-22 07:27:00,78.8,75.2,0.00,West,270,0.0,0.0,86,0.00,,,-99.99,Homeseer,2013-09-22 11:27:00,
2013-09-22 07:37:00,78.8,74.9,0.00,West,270,0.0,0.0,85,0.00,,,-99.99,Homeseer,2013-09-22 11:37:00,
2013-09-22 07:47:00,79.0,75.1,0.00,WSW,247,0.0,0.0,85,0.00,,,-99.99,Homeseer,2013-09-22 11:47:00,
2013-09-22 07:57:00,79.3,74.8,0.00,WSW,247,0.0,0.0,83,0.00,,,-99.99,Homeseer,2013-09-22 11:57:00,
2013-09-22 08:07:00,79.7,75.2,0.00,WSW,247,0.0,0.0,83,0.00,,,-99.99,Homeseer,2013-09-22 12:07:00,
2013-09-22 08:17:00,80.1,75.0,0.00,West,270,0.0,0.0,81,0.00,,,-99.99,Homeseer,2013-09-22 12:17:00,
2013-09-22 08:27:00,80.4,74.7,0.00,North,0,0.0,0.0,79,0.00,,,-99.99,Homeseer,2013-09-22 12:27:00,
2013-09-22 08:37:00,80.8,74.5,0.00,NNE,22,0.0,0.0,77,0.00,,,-99.99,Homeseer,2013-09-22 12:37:00,
2013-09-22 08:47:00,81.1,74.5,0.00,WSW,247,0.0,0.0,76,0.00,,,-99.99,Homeseer,2013-09-22 12:47:00,
2013-09-22 08:57:00,81.7,74.8,0.00,West,270,0.0,0.0,75,0.00,,,-99.99,Homeseer,2013-09-22 12:57:00,
2013-09-22 09:07:00,82.6,74.7,0.00,North,0,0.0,0.0,72,0.00,,,-99.99,Homeseer,2013-09-22 13:07:00,
2013-09-22 09:17:00,82.9,74.3,0.00,North,0,0.0,1.3,70,0.00,,,-99.99,Homeseer,2013-09-22 13:17:00,
2013-09-22 09:27:00,82.9,73.6,0.00,North,0,0.9,0.9,68,0.00,,,-99.99,Homeseer,2013-09-22 13:27:00,
2013-09-22 09:37:00,83.5,73.8,0.00,South,180,0.0,1.1,67,0.00,,,-99.99,Homeseer,2013-09-22 13:37:00,
2013-09-22 09:47:00,84.2,73.8,0.00,SSE,157,1.3,0.0,65,0.00,,,-99.99,Homeseer,2013-09-22 13:47:00,
2013-09-22 09:57:00,85.1,73.9,0.00,South,180,2.5,2.5,63,0.00,,,-99.99,Homeseer,2013-09-22 13:57:00,
2013-09-22 10:07:00,85.6,73.2,0.00,North,0,1.3,1.6,60,0.00,,,-99.99,Homeseer,2013-09-22 14:07:00,
2013-09-22 10:17:00,86.2,72.6,0.00,WNW,297,3.6,7.8,57,0.00,,,-99.99,Homeseer,2013-09-22 14:17:00,
2013-09-22 10:27:00,86.9,72.8,0.00,North,0,3.4,3.4,56,0.00,,,-99.99,Homeseer,2013-09-22 14:27:00,
2013-09-22 10:37:00,87.3,71.4,0.00,SSE,157,2.2,3.4,52,0.00,,,-99.99,Homeseer,2013-09-22 14:37:00,
2013-09-22 10:47:00,87.8,71.9,0.00,South,180,2.0,2.0,52,0.00,,,-99.99,Homeseer,2013-09-22 14:47:00,
2013-09-22 10:57:00,88.2,71.8,0.00,ESE,112,3.4,3.4,51,0.00,,,-99.99,Homeseer,2013-09-22 14:57:00,
2013-09-22 11:07:00,88.2,70.9,0.00,North,0,4.0,4.0,49,0.00,,,-99.99,Homeseer,2013-09-22 15:07:00,
2013-09-22 11:17:00,88.7,71.3,0.00,North,0,2.7,3.6,49,0.00,,,-99.99,Homeseer,2013-09-22 15:17:00,
2013-09-22 11:27:00,88.7,69.4,0.00,North,0,2.7,2.9,45,0.00,,,-99.99,Homeseer,2013-09-22 15:27:00,
2013-09-22 11:37:00,88.9,71.0,0.00,North,0,3.8,5.8,48,0.00,,,-99.99,Homeseer,2013-09-22 15:37:00,
2013-09-22 11:47:00,86.9,71.1,0.00,SSE,157,2.7,3.8,52,0.00,,,-99.99,Homeseer,2013-09-22 15:47:00,
2013-09-22 11:57:00,88.3,69.5,0.00,North,0,4.3,4.3,46,0.00,,,-99.99,Homeseer,2013-09-22 15:57:00,
2013-09-22 12:07:00,89.1,69.2,0.00,North,0,4.5,4.5,44,0.00,,,-99.99,Homeseer,2013-09-22 16:07:00,
2013-09-22 12:17:00,89.1,69.2,0.00,SSE,157,4.0,4.0,44,0.00,,,-99.99,Homeseer,2013-09-22 16:17:00,
2013-09-22 12:27:00,89.4,69.0,0.00,South,180,4.3,0.0,43,0.00,,,-99.99,Homeseer,2013-09-22 16:27:00,
2013-09-22 12:37:00,90.1,68.5,0.00,SSE,157,3.1,3.1,41,0.00,,,-99.99,Homeseer,2013-09-22 16:37:00,
2013-09-22 12:47:00,90.0,67.3,0.00,South,180,5.6,5.6,39,0.00,,,-99.99,Homeseer,2013-09-22 16:47:00,
2013-09-22 12:57:00,90.5,68.3,0.00,SE,135,4.9,5.4,40,0.00,,,-99.99,Homeseer,2013-09-22 16:57:00,
2013-09-22 13:07:00,90.3,68.1,0.00,SSE,157,4.7,4.7,40,0.00,,,-99.99,Homeseer,2013-09-22 17:07:00,
2013-09-22 13:17:00,90.5,67.7,0.00,South,180,5.8,6.0,39,0.00,,,-99.99,Homeseer,2013-09-22 17:17:00,
2013-09-22 13:27:00,90.9,68.6,0.00,SW,225,4.3,4.3,40,0.00,,,-99.99,Homeseer,2013-09-22 17:27:00,
2013-09-22 13:37:00,91.0,68.1,0.00,East,90,6.7,6.7,39,0.00,,,-99.99,Homeseer,2013-09-22 17:37:00,
2013-09-22 13:47:00,91.0,68.1,0.00,SSE,157,4.7,5.8,39,0.00,,,-99.99,Homeseer,2013-09-22 17:47:00,
2013-09-22 13:57:00,90.9,68.1,0.00,WSW,247,5.4,5.4,39,0.00,,,-99.99,Homeseer,2013-09-22 17:57:00,
2013-09-22 14:07:00,89.6,66.9,0.00,South,180,3.8,4.0,39,0.00,,,-99.99,Homeseer,2013-09-22 18:07:00,
2013-09-22 14:17:00,88.9,66.9,0.00,North,0,3.8,5.6,40,0.00,,,-99.99,Homeseer,2013-09-22 18:17:00,
2013-09-22 14:27:00,89.6,66.3,0.00,North,0,3.8,5.4,38,0.00,,,-99.99,Homeseer,2013-09-22 18:27:00,
2013-09-22 14:37:00,90.1,66.8,0.00,North,0,3.1,3.4,38,0.00,,,-99.99,Homeseer,2013-09-22 18:37:00,
2013-09-22 14:47:00,89.2,66.6,0.00,North,0,4.7,7.2,39,0.00,,,-99.99,Homeseer,2013-09-22 18:47:00,
2013-09-22 14:57:00,88.7,66.7,0.00,SSE,157,4.9,5.8,40,0.00,,,-99.99,Homeseer,2013-09-22 18:57:00,
2013-09-22 15:07:00,88.7,66.7,0.00,ESE,112,5.4,5.6,40,0.00,,,-99.99,Homeseer,2013-09-22 19:07:00,
2013-09-22 15:17:00,89.4,67.3,0.00,WNW,297,2.9,5.4,40,0.00,,,-99.99,Homeseer,2013-09-22 19:17:00,
2013-09-22 15:27:00,89.4,66.8,0.00,South,180,4.5,5.4,39,0.00,,,-99.99,Homeseer,2013-09-22 19:27:00,
2013-09-22 15:37:00,89.6,67.5,0.00,SSE,157,2.2,6.3,40,0.00,,,-99.99,Homeseer,2013-09-22 19:37:00,
2013-09-22 15:47:00,90.0,67.8,0.00,East,90,2.7,2.7,40,0.00,,,-99.99,Homeseer,2013-09-22 19:47:00,
2013-09-22 15:57:00,89.4,67.3,0.00,SSE,157,3.6,3.6,40,0.00,,,-99.99,Homeseer,2013-09-22 19:57:00,
2013-09-22 16:07:00,89.4,67.3,0.00,North,0,4.5,4.5,40,0.00,,,-99.99,Homeseer,2013-09-22 20:07:00,
2013-09-22 16:17:00,89.4,67.9,0.00,NNE,22,2.9,2.9,41,0.00,,,-99.99,Homeseer,2013-09-22 20:17:00,
2013-09-22 16:27:00,89.1,68.2,0.00,WSW,247,2.9,4.9,42,0.00,,,-99.99,Homeseer,2013-09-22 20:27:00,
2013-09-22 16:37:00,89.2,67.7,0.00,North,0,2.2,2.2,41,0.00,,,-99.99,Homeseer,2013-09-22 20:37:00,
2013-09-22 16:47:00,89.2,66.6,0.00,North,0,0.9,0.0,39,0.00,,,-99.99,Homeseer,2013-09-22 20:47:00,
2013-09-22 16:57:00,89.4,66.8,0.00,South,180,2.0,0.0,39,0.00,,,-99.99,Homeseer,2013-09-22 20:57:00,
2013-09-22 17:07:00,88.9,66.3,0.00,North,0,0.0,2.0,39,0.00,,,-99.99,Homeseer,2013-09-22 21:07:00,
2013-09-22 17:17:00,88.5,65.4,0.00,South,180,1.3,1.3,38,0.00,,,-99.99,Homeseer,2013-09-22 21:17:00,
2013-09-22 17:27:00,89.1,65.9,0.00,South,180,2.5,3.4,38,0.00,,,-99.99,Homeseer,2013-09-22 21:27:00,
2013-09-22 17:37:00,89.1,64.7,0.00,WSW,247,2.0,2.0,36,0.00,,,-99.99,Homeseer,2013-09-22 21:37:00,
2013-09-22 17:47:00,88.7,65.6,0.00,SW,225,3.1,4.9,38,0.00,,,-99.99,Homeseer,2013-09-22 21:47:00,
2013-09-22 17:57:00,87.8,65.4,0.00,SSE,157,2.2,2.9,39,0.00,,,-99.99,Homeseer,2013-09-22 21:57:00,
2013-09-22 18:07:00,87.3,65.5,0.00,North,0,2.7,3.1,40,0.00,,,-99.99,Homeseer,2013-09-22 22:07:00,
2013-09-22 18:27:00,86.7,66.6,0.00,South,180,2.5,2.5,43,0.00,,,-99.99,Homeseer,2013-09-22 22:27:00,
2013-09-22 18:37:00,86.5,66.9,0.00,North,0,2.9,3.1,44,0.00,,,-99.99,Homeseer,2013-09-22 22:37:00,
2013-09-22 18:47:00,86.4,67.3,0.00,South,180,2.7,2.7,45,0.00,,,-99.99,Homeseer,2013-09-22 22:47:00,
2013-09-22 18:57:00,86.0,67.5,0.00,SE,135,0.0,0.0,46,0.00,,,-99.99,Homeseer,2013-09-22 22:57:00,
2013-09-22 19:07:00,85.6,68.1,0.00,NNE,22,1.6,1.6,48,0.00,,,-99.99,Homeseer,2013-09-22 23:07:00,
2013-09-22 19:17:00,85.5,68.5,0.00,South,180,2.2,2.7,49,0.00,,,-99.99,Homeseer,2013-09-22 23:17:00,
2013-09-22 19:27:00,85.1,68.5,0.00,South,180,0.0,0.9,50,0.00,,,-99.99,Homeseer,2013-09-22 23:27:00,
2013-09-22 19:37:00,84.9,68.8,0.00,North,0,1.3,3.4,51,0.00,,,-99.99,Homeseer,2013-09-22 23:37:00,
2013-09-22 19:47:00,84.7,69.9,0.00,North,0,0.9,3.6,54,0.00,,,-99.99,Homeseer,2013-09-22 23:47:00,
2013-09-22 19:57:00,84.7,69.9,0.00,North,0,1.6,0.0,54,0.00,,,-99.99,Homeseer,2013-09-22 23:57:00,
2013-09-22 20:07:00,84.6,70.3,0.00,WNW,297,0.0,0.0,55,0.00,,,-99.99,Homeseer,2013-09-23 00:07:00,
2013-09-22 20:17:00,84.6,70.7,0.00,WSW,247,1.1,0.0,56,0.00,,,-99.99,Homeseer,2013-09-23 00:17:00,
2013-09-22 20:27:00,84.4,70.9,0.00,South,180,0.9,0.0,57,0.00,,,-99.99,Homeseer,2013-09-23 00:27:00,
2013-09-22 20:37:00,84.2,71.1,0.00,South,180,0.0,1.3,58,0.00,,,-99.99,Homeseer,2013-09-23 00:37:00,
2013-09-22 20:47:00,84.2,71.5,0.00,North,0,0.0,0.0,59,0.00,,,-99.99,Homeseer,2013-09-23 00:47:00,
2013-09-22 20:57:00,84.0,71.3,0.00,South,180,0.0,0.0,59,0.00,,,-99.99,Homeseer,2013-09-23 00:57:00,
2013-09-22 21:07:00,84.0,72.1,0.00,ESE,112,1.6,0.0,61,0.00,,,-99.99,Homeseer,2013-09-23 01:07:00,
2013-09-22 21:17:00,84.0,72.5,0.00,ENE,67,0.0,0.0,62,0.00,,,-99.99,Homeseer,2013-09-23 01:17:00,
2013-09-22 21:27:00,83.8,72.7,0.00,North,0,0.0,0.0,63,0.00,,,-99.99,Homeseer,2013-09-23 01:27:00,
2013-09-22 21:37:00,83.8,73.0,0.00,WSW,247,0.0,0.0,64,0.00,,,-99.99,Homeseer,2013-09-23 01:37:00,
2013-09-22 21:47:00,83.7,72.9,0.00,WSW,247,0.0,0.0,64,0.00,,,-99.99,Homeseer,2013-09-23 01:47:00,
2013-09-22 21:57:00,83.7,72.6,0.00,South,180,0.0,0.0,63,0.00,,,-99.99,Homeseer,2013-09-23 01:57:00,
2013-09-22 22:07:00,83.5,72.4,0.00,WSW,247,0.0,0.0,63,0.00,,,-99.99,Homeseer,2013-09-23 02:07:00,
2013-09-22 22:17:00,83.5,72.4,0.00,SW,225,0.0,0.0,63,0.00,,,-99.99,Homeseer,2013-09-23 02:17:00,
2013-09-22 22:27:00,83.3,72.6,0.00,WSW,247,1.3,0.0,64,0.00,,,-99.99,Homeseer,2013-09-23 02:27:00,
2013-09-22 22:37:00,83.3,72.6,0.00,WSW,247,2.0,0.0,64,0.00,,,-99.99,Homeseer,2013-09-23 02:37:00,
2013-09-22 22:47:00,83.1,71.6,0.00,North,0,0.0,0.0,62,0.00,,,-99.99,Homeseer,2013-09-23 02:47:00,
2013-09-22 22:57:00,82.9,71.1,0.00,WSW,247,0.0,0.0,61,0.00,,,-99.99,Homeseer,2013-09-23 02:57:00,
2013-09-22 23:07:00,82.9,71.1,0.00,WSW,247,0.0,0.0,61,0.00,,,-99.99,Homeseer,2013-09-23 03:07:00,
2013-09-22 23:17:00,82.8,71.0,0.00,WSW,247,0.0,0.0,61,0.00,,,-99.99,Homeseer,2013-09-23 03:17:00,
2013-09-22 23:27:00,82.8,71.4,0.00,WSW,247,1.6,0.0,62,0.00,,,-99.99,Homeseer,2013-09-23 03:27:00,
2013-09-22 23:37:00,82.6,70.8,0.00,WNW,297,0.0,0.0,61,0.00,,,-99.99,Homeseer,2013-09-23 03:37:00,
2013-09-22 23:47:00,82.6,70.8,0.00,WSW,247,0.9,0.0,61,0.00,,,-99.99,Homeseer,2013-09-23 03:47:00,
2013-09-22 23:57:00,82.4,70.6,0.00,WSW,247,0.0,0.0,61,0.00,,,-99.99,Homeseer,2013-09-23 03:57:00,